BKPR/PRN METAR and TAF weather

Enter ICAO airport designator
Station Type Date Time Source
BKPR METAR 2021/09/20 05:00 UTC NOAA

BKPR 200500Z VRB03KT 9999 SCT030 BKN060 14/13 Q1014 NOSIG


Station Type Date Time Source
BKPR Decoded METAR 2021/09/20 05:00 UTC NOAA

Station name not available
Sep 20, 2021 - 01:00 AM EDT / 2021.09.20 0500 UTC
Wind: Variable at 3 MPH (3 KT):0
Visibility: greater than 7 mile(s):0
Sky conditions: mostly cloudy
Temperature: 57 F (14 C)
Dew Point: 55 F (13 C)
Relative Humidity: 93%
Pressure (altimeter): 29.94 in. Hg (1014 hPa)
ob: BKPR 200500Z VRB03KT 9999 SCT030 BKN060 14/13 Q1014 NOSIG
cycle: 5

Station Type Date Time Source
BKPR TAF 2021/09/20 03:15 UTC NOAA

TAF BKPR 200315Z 2003/2024 25008KT 9999 SCT040
TEMPO 2003/2008 4000 TSRA SCT30CB
TEMPO 2008/2020 24018G28KT
BECMG 2019/2022 01010KT

Example: see airport list